createdAt,value
2022-10-26T00:00:28.595Z,100725.00
2022-10-26T00:02:55.719Z,100698.94
2022-10-26T00:05:24.974Z,100711.94
2022-10-26T00:07:51.344Z,100724.59
2022-10-26T00:10:17.710Z,100703.66
2022-10-26T00:12:44.015Z,100706.19
2022-10-26T00:15:10.562Z,100730.13
2022-10-26T00:17:36.893Z,100723.38
2022-10-26T00:20:03.500Z,100709.81
2022-10-26T00:22:29.878Z,100689.03
2022-10-26T00:24:56.297Z,100711.56
2022-10-26T00:27:22.581Z,100699.69
2022-10-26T00:29:48.911Z,100708.28
2022-10-26T00:32:15.505Z,100716.72
2022-10-26T00:34:42.928Z,100667.03
2022-10-26T00:37:09.657Z,100677.22
2022-10-26T00:39:36.723Z,100703.84
2022-10-26T00:42:03.307Z,100691.09
2022-10-26T00:44:48.002Z,100704.63
2022-10-26T00:47:16.082Z,100711.56
2022-10-26T00:49:46.592Z,100673.56
2022-10-26T00:52:15.247Z,100684.59
2022-10-26T00:54:41.648Z,100660.28
2022-10-26T00:57:08.111Z,100712.03
2022-10-26T00:59:34.547Z,100581.63
2022-10-26T01:02:00.976Z,100680.81
2022-10-26T01:04:27.406Z,100712.94
2022-10-26T01:06:54.420Z,100671.97
2022-10-26T01:09:21.616Z,100701.03
2022-10-26T01:11:47.989Z,100683.13
2022-10-26T01:14:18.044Z,100657.16
2022-10-26T01:17:21.354Z,100694.06
2022-10-26T01:20:08.911Z,100683.38
2022-10-26T01:22:47.287Z,100656.97
2022-10-26T01:25:39.066Z,100650.88
2022-10-26T01:28:26.502Z,100655.69
2022-10-26T01:30:55.607Z,100628.41
2022-10-26T01:33:45.878Z,100626.72
2022-10-26T01:36:42.332Z,100679.03
2022-10-26T01:39:14.513Z,100664.81
2022-10-26T01:41:46.946Z,100672.97
2022-10-26T01:44:19.528Z,100634.28
2022-10-26T01:46:49.154Z,100599.06
2022-10-26T01:49:19.975Z,100658.25
2022-10-26T01:51:48.480Z,100645.19
2022-10-26T01:54:15.481Z,100603.69
2022-10-26T01:56:46.399Z,100630.41
2022-10-26T01:59:20.016Z,100646.63
2022-10-26T02:01:50.731Z,100642.81
2022-10-26T02:04:59.442Z,100585.56
2022-10-26T02:07:34.713Z,100640.16
2022-10-26T02:10:30.894Z,100632.38
2022-10-26T02:13:10.416Z,100610.22
2022-10-26T02:15:52.933Z,100618.69
2022-10-26T02:18:38.120Z,100613.41
2022-10-26T02:21:09.726Z,100630.53
2022-10-26T02:23:40.052Z,100635.81
2022-10-26T02:26:09.316Z,100603.09
2022-10-26T02:28:39.071Z,100586.00
2022-10-26T02:31:07.505Z,100594.72
2022-10-26T02:33:38.841Z,100614.94
2022-10-26T02:36:09.333Z,100570.38
2022-10-26T02:38:38.119Z,100608.03
2022-10-26T02:41:06.283Z,100598.69
2022-10-26T02:43:38.313Z,100582.28
2022-10-26T02:46:09.390Z,100618.28
2022-10-26T02:48:36.207Z,100578.72
2022-10-26T02:51:08.281Z,100613.88
2022-10-26T02:53:46.138Z,100600.88
2022-10-26T02:56:20.281Z,100598.50
2022-10-26T02:58:52.543Z,100610.47
2022-10-26T03:01:19.069Z,100572.53
2022-10-26T03:03:46.642Z,100580.31
2022-10-26T03:06:20.823Z,100600.50
2022-10-26T03:08:47.402Z,100568.78
2022-10-26T03:11:13.690Z,100577.22
2022-10-26T03:13:40.058Z,100597.88
2022-10-26T03:16:06.667Z,100555.81
2022-10-26T03:18:33.017Z,100576.25
2022-10-26T03:20:59.357Z,100564.13
2022-10-26T03:23:25.724Z,100590.34
2022-10-26T03:25:52.050Z,100561.06
2022-10-26T03:28:18.393Z,100559.94
2022-10-26T03:30:44.695Z,100564.38
2022-10-26T03:33:11.025Z,100558.88
2022-10-26T03:35:37.306Z,100599.91
2022-10-26T03:38:03.686Z,100573.47
2022-10-26T03:40:29.995Z,100576.75
2022-10-26T03:42:56.341Z,100589.72
2022-10-26T03:45:22.683Z,100562.13
2022-10-26T03:47:49.788Z,100587.28
2022-10-26T03:50:19.113Z,100557.94
2022-10-26T03:52:47.274Z,100582.84
2022-10-26T03:55:14.391Z,100600.88
2022-10-26T03:57:45.468Z,100588.00
2022-10-26T04:00:17.195Z,100585.50
2022-10-26T04:02:48.558Z,100596.59
2022-10-26T04:05:16.516Z,100569.94
2022-10-26T04:07:43.178Z,100567.81
2022-10-26T04:10:10.398Z,100545.25
2022-10-26T04:12:38.079Z,100577.00
2022-10-26T04:15:06.833Z,100575.28
2022-10-26T04:17:33.303Z,100558.72
2022-10-26T04:19:59.641Z,100550.03
2022-10-26T04:22:26.032Z,100558.72
2022-10-26T04:24:52.477Z,100560.31
2022-10-26T04:27:18.783Z,100600.81
2022-10-26T04:29:45.213Z,100556.88
2022-10-26T04:32:11.513Z,100569.00
2022-10-26T04:34:37.874Z,100574.94
2022-10-26T04:37:04.213Z,100533.06
2022-10-26T04:39:30.517Z,100590.41
2022-10-26T04:41:56.832Z,100575.88
2022-10-26T04:44:23.153Z,100572.56
2022-10-26T04:46:49.542Z,100579.31
2022-10-26T04:49:15.903Z,100568.88
2022-10-26T04:51:42.247Z,100559.22
2022-10-26T04:54:08.599Z,100575.75
2022-10-26T04:56:34.999Z,100542.13
2022-10-26T04:59:01.506Z,100549.50
2022-10-26T05:01:28.014Z,100561.66
2022-10-26T05:03:54.761Z,100553.94
2022-10-26T05:06:21.644Z,100600.25
2022-10-26T05:08:48.387Z,100588.81
2022-10-26T05:11:14.850Z,100572.66
2022-10-26T05:13:41.351Z,100585.53
2022-10-26T05:16:07.922Z,100535.78
2022-10-26T05:18:34.240Z,100530.66
2022-10-26T05:21:00.570Z,100569.97
2022-10-26T05:23:26.898Z,100594.09
2022-10-26T05:25:55.258Z,100594.97
2022-10-26T05:28:21.765Z,100562.13
2022-10-26T05:30:48.244Z,100573.16
2022-10-26T05:33:15.012Z,100576.84
2022-10-26T05:35:41.617Z,100534.06
2022-10-26T05:38:09.782Z,100606.09
2022-10-26T05:40:36.667Z,100583.81
2022-10-26T05:43:03.468Z,100601.56
2022-10-26T05:45:30.316Z,100524.28
2022-10-26T05:47:58.718Z,100561.81
2022-10-26T05:50:28.720Z,100565.88
2022-10-26T05:52:55.752Z,100577.88
2022-10-26T05:55:22.976Z,100595.91
2022-10-26T05:57:49.845Z,100592.78
2022-10-26T06:00:24.807Z,100550.72
2022-10-26T06:03:09.950Z,100584.09
2022-10-26T06:05:45.250Z,100610.78
2022-10-26T06:08:12.070Z,100613.50
2022-10-26T06:10:39.212Z,100601.50
2022-10-26T06:13:05.788Z,100598.84
2022-10-26T06:15:37.400Z,100595.69
2022-10-26T06:18:25.615Z,100622.34
2022-10-26T06:21:10.453Z,100566.78
2022-10-26T06:24:07.696Z,100631.97
2022-10-26T06:27:18.576Z,100618.00
2022-10-26T06:30:07.144Z,100637.38
2022-10-26T06:32:34.060Z,100610.13
2022-10-26T06:35:29.851Z,100631.25
2022-10-26T06:37:58.994Z,100579.06
2022-10-26T06:40:26.101Z,100567.13
2022-10-26T06:42:52.705Z,100609.28
2022-10-26T06:45:19.546Z,100610.19
2022-10-26T06:48:00.499Z,100627.31
2022-10-26T06:50:42.423Z,100642.78
2022-10-26T06:53:30.875Z,100642.78
2022-10-26T06:56:00.593Z,100632.34
2022-10-26T06:58:34.910Z,100638.25
2022-10-26T07:01:01.553Z,100645.75
2022-10-26T07:03:27.881Z,100621.56
2022-10-26T07:05:54.347Z,100652.31
2022-10-26T07:08:20.785Z,100613.59
2022-10-26T07:10:47.332Z,100640.34
2022-10-26T07:13:13.687Z,100631.63
2022-10-26T07:15:41.078Z,100623.16
2022-10-26T07:18:08.350Z,100658.13
2022-10-26T07:20:39.505Z,100647.41
2022-10-26T07:23:07.503Z,100653.41
2022-10-26T07:25:35.114Z,100656.63
2022-10-26T07:28:01.946Z,100609.59
2022-10-26T07:30:29.739Z,100618.41
2022-10-26T07:33:04.622Z,100631.00
2022-10-26T07:35:30.926Z,100652.75
2022-10-26T07:37:59.000Z,100637.16
2022-10-26T07:40:26.367Z,100653.91
2022-10-26T07:42:53.511Z,100646.91
2022-10-26T07:45:20.173Z,100620.31
2022-10-26T07:47:46.537Z,100519.88
2022-10-26T07:50:13.089Z,100639.22
2022-10-26T07:52:41.267Z,100610.19
2022-10-26T07:55:09.562Z,100648.06
2022-10-26T07:57:36.161Z,100668.94
2022-10-26T08:00:05.353Z,100705.13
2022-10-26T08:02:31.846Z,100710.91
2022-10-26T08:04:58.169Z,100715.13
2022-10-26T08:07:26.219Z,100704.72
2022-10-26T08:09:52.830Z,100700.28
2022-10-26T08:12:19.419Z,100642.66
2022-10-26T08:14:45.895Z,100683.97
2022-10-26T08:17:12.464Z,100694.84
2022-10-26T08:19:38.798Z,100698.72
2022-10-26T08:22:06.369Z,100636.66
2022-10-26T08:24:32.791Z,100697.44
2022-10-26T08:26:59.104Z,100692.16
2022-10-26T08:29:25.392Z,100683.81
2022-10-26T08:31:51.686Z,100726.28
2022-10-26T08:34:18.004Z,100701.28
2022-10-26T08:36:44.299Z,100705.72
2022-10-26T08:39:10.640Z,100665.44
2022-10-26T08:41:42.527Z,100720.81
2022-10-26T08:44:46.624Z,100746.53
2022-10-26T08:47:30.985Z,100718.50
2022-10-26T08:50:13.289Z,100704.00
2022-10-26T08:52:49.832Z,100748.47
2022-10-26T08:55:20.280Z,100720.31
2022-10-26T08:57:49.191Z,100738.72
2022-10-26T09:00:20.318Z,100703.66
2022-10-26T09:02:53.505Z,100758.13
2022-10-26T09:05:38.956Z,100742.25
2022-10-26T09:08:08.896Z,100716.78
2022-10-26T09:11:12.511Z,100720.69
2022-10-26T09:14:09.822Z,100725.06
2022-10-26T09:17:03.896Z,100766.16
2022-10-26T09:19:48.622Z,100770.25
2022-10-26T09:22:14.837Z,100771.78
2022-10-26T09:24:55.845Z,100758.97
2022-10-26T09:27:34.580Z,100775.19
2022-10-26T09:30:12.764Z,100741.09
2022-10-26T09:32:44.512Z,100794.22
2022-10-26T09:35:18.980Z,100784.66
2022-10-26T09:37:51.516Z,100746.97
2022-10-26T09:40:21.752Z,100784.03
2022-10-26T09:43:24.543Z,100784.59
2022-10-26T09:45:52.581Z,100796.03
2022-10-26T09:48:26.522Z,100782.59
2022-10-26T09:50:53.059Z,100780.94
2022-10-26T09:53:19.518Z,100794.66
2022-10-26T09:55:48.289Z,100782.00
2022-10-26T09:58:19.204Z,100824.00
2022-10-26T10:00:46.588Z,100819.56
2022-10-26T10:03:27.756Z,100812.88
2022-10-26T10:05:54.506Z,100830.88
2022-10-26T10:08:27.524Z,100835.50
2022-10-26T10:11:08.049Z,100829.31
2022-10-26T10:13:36.845Z,100837.06
2022-10-26T10:16:05.501Z,100827.28
2022-10-26T10:18:33.321Z,100817.91
2022-10-26T10:21:00.157Z,100819.50
2022-10-26T10:23:33.703Z,100839.16
2022-10-26T10:26:10.832Z,100844.56
2022-10-26T10:28:38.221Z,100850.34
2022-10-26T10:31:17.903Z,100859.94
2022-10-26T10:33:45.641Z,100846.16
2022-10-26T10:36:17.635Z,100854.06
2022-10-26T10:38:47.169Z,100842.81
2022-10-26T10:41:18.572Z,100869.16
2022-10-26T10:43:51.830Z,100848.06
2022-10-26T10:46:21.273Z,100872.66
2022-10-26T10:48:53.854Z,100849.91
2022-10-26T10:51:24.038Z,100869.75
2022-10-26T10:53:53.187Z,100888.75
2022-10-26T10:56:33.636Z,100884.09
2022-10-26T10:59:12.013Z,100882.00
2022-10-26T11:01:43.183Z,100862.09
2022-10-26T11:04:36.691Z,100883.69
2022-10-26T11:07:07.021Z,100876.56
2022-10-26T11:09:38.695Z,100882.69
2022-10-26T11:12:15.250Z,100871.91
2022-10-26T11:14:48.988Z,100896.06
2022-10-26T11:17:24.041Z,100875.13
2022-10-26T11:19:59.564Z,100899.78
2022-10-26T11:22:31.378Z,100878.97
2022-10-26T11:25:07.699Z,100850.75
2022-10-26T11:27:43.871Z,100880.59
2022-10-26T11:30:21.744Z,100870.22
2022-10-26T11:32:56.166Z,100866.78
2022-10-26T11:35:45.394Z,100897.28
2022-10-26T11:38:33.183Z,100900.25
2022-10-26T11:41:17.107Z,100855.03
2022-10-26T11:43:53.294Z,100914.94
2022-10-26T11:46:26.555Z,100915.06
2022-10-26T11:49:02.230Z,100910.31
2022-10-26T11:51:46.647Z,100924.09
2022-10-26T11:54:19.054Z,100888.97
2022-10-26T11:56:48.751Z,100931.16
2022-10-26T11:59:22.200Z,100933.69
2022-10-26T12:01:56.882Z,100920.91
2022-10-26T12:04:28.055Z,100911.44
2022-10-26T12:06:56.267Z,100929.16
2022-10-26T12:09:32.149Z,100889.44
2022-10-26T12:12:14.123Z,100894.56
2022-10-26T12:14:56.057Z,100919.38
2022-10-26T12:17:46.988Z,100946.09
2022-10-26T12:20:45.739Z,100946.72
2022-10-26T12:23:19.083Z,100927.94
2022-10-26T12:26:20.251Z,100942.66
2022-10-26T12:28:48.750Z,100954.03
2022-10-26T12:31:46.586Z,100937.09
2022-10-26T12:34:15.608Z,100916.16
2022-10-26T12:36:54.843Z,100945.88
2022-10-26T12:39:37.612Z,100944.34
2022-10-26T12:42:09.692Z,100951.06
2022-10-26T12:44:37.680Z,100926.00
2022-10-26T12:47:05.628Z,100949.56
2022-10-26T12:50:06.036Z,100950.78
2022-10-26T12:52:43.884Z,100944.59
2022-10-26T12:55:12.999Z,100955.94
2022-10-26T12:57:53.289Z,100917.97
2022-10-26T13:00:25.480Z,100962.59
2022-10-26T13:03:24.982Z,100970.06
2022-10-26T13:06:45.201Z,100966.09
2022-10-26T13:09:20.074Z,100975.63
2022-10-26T13:11:50.291Z,100974.53
2022-10-26T13:14:29.910Z,100972.81
2022-10-26T13:16:56.267Z,100961.44
2022-10-26T13:19:25.451Z,100983.47
2022-10-26T13:21:52.170Z,100964.41
2022-10-26T13:24:24.569Z,100996.50
2022-10-26T13:27:06.073Z,100963.03
2022-10-26T13:29:53.110Z,101000.13
2022-10-26T13:32:20.478Z,100991.59
2022-10-26T13:34:47.419Z,100988.94
2022-10-26T13:37:26.831Z,101000.78
2022-10-26T13:39:55.937Z,100992.97
2022-10-26T13:42:27.487Z,100938.00
2022-10-26T13:44:59.487Z,100996.06
2022-10-26T13:47:38.959Z,100967.69
2022-10-26T13:50:08.289Z,100993.00
2022-10-26T13:52:47.979Z,100964.25
2022-10-26T13:55:25.194Z,100990.22
2022-10-26T13:58:05.436Z,100978.94
2022-10-26T14:00:32.102Z,100958.50
2022-10-26T14:02:58.426Z,100952.81
2022-10-26T14:05:25.276Z,100976.66
2022-10-26T14:07:56.648Z,100999.66
2022-10-26T14:10:40.505Z,100974.78
2022-10-26T14:13:08.690Z,100919.50
2022-10-26T14:15:36.674Z,101011.03
2022-10-26T14:18:04.259Z,100976.41
2022-10-26T14:20:32.077Z,100968.06
2022-10-26T14:22:58.560Z,100979.75
2022-10-26T14:25:41.603Z,101022.75
2022-10-26T14:28:30.424Z,101018.19
2022-10-26T14:31:16.719Z,100999.81
2022-10-26T14:33:46.003Z,100996.06
2022-10-26T14:36:13.052Z,101010.59
2022-10-26T14:38:46.225Z,101005.69
2022-10-26T14:41:16.602Z,100998.63
2022-10-26T14:43:44.238Z,101022.09
2022-10-26T14:46:19.146Z,101008.00
2022-10-26T14:48:57.592Z,101007.63
2022-10-26T14:51:29.210Z,101014.53
2022-10-26T14:54:00.995Z,101014.72
2022-10-26T14:56:29.262Z,101016.41
2022-10-26T14:58:57.298Z,101020.44
2022-10-26T15:01:23.851Z,101044.16
2022-10-26T15:03:55.330Z,101039.88
2022-10-26T15:06:29.212Z,101028.63
2022-10-26T15:08:57.409Z,101034.69
2022-10-26T15:11:24.494Z,101026.72
2022-10-26T15:13:51.421Z,101000.25
2022-10-26T15:16:20.760Z,101027.28
2022-10-26T15:18:51.582Z,101047.06
2022-10-26T15:21:30.253Z,101068.03
2022-10-26T15:23:57.674Z,101015.25
2022-10-26T15:26:25.090Z,101052.03
2022-10-26T15:28:52.758Z,101044.22
2022-10-26T15:31:18.996Z,101084.22
2022-10-26T15:33:51.483Z,101094.28
2022-10-26T15:36:23.587Z,101097.16
2022-10-26T15:38:50.339Z,101088.50
2022-10-26T15:41:38.783Z,101089.09
2022-10-26T15:44:14.477Z,101080.50
2022-10-26T15:46:41.131Z,101076.91
2022-10-26T15:49:14.065Z,101041.00
2022-10-26T15:51:40.400Z,101116.31
2022-10-26T15:54:06.842Z,101072.72
2022-10-26T15:56:33.222Z,101099.88
2022-10-26T15:58:59.642Z,101074.53
2022-10-26T16:01:28.065Z,101123.91
2022-10-26T16:03:55.159Z,101140.13
2022-10-26T16:06:28.849Z,101088.06
2022-10-26T16:08:58.379Z,101135.00
2022-10-26T16:11:24.738Z,101107.81
2022-10-26T16:16:22.577Z,101129.34
2022-10-26T16:19:06.168Z,101107.38
2022-10-26T16:21:41.806Z,101145.22
2022-10-26T16:24:09.400Z,101145.31
2022-10-26T16:26:35.849Z,101158.28
2022-10-26T16:29:02.171Z,101171.16
2022-10-26T16:31:28.494Z,101179.47
2022-10-26T16:33:54.867Z,101134.25
2022-10-26T16:36:21.185Z,101151.72
2022-10-26T16:38:48.144Z,101163.56
2022-10-26T16:41:16.982Z,101146.88
2022-10-26T16:43:44.859Z,101195.22
2022-10-26T16:46:13.917Z,101198.91
2022-10-26T16:48:41.703Z,101196.72
2022-10-26T16:51:10.530Z,101189.03
2022-10-26T16:53:37.165Z,101202.56
2022-10-26T16:56:05.574Z,101205.31
2022-10-26T16:58:34.349Z,101116.38
2022-10-26T17:01:04.101Z,101216.16
2022-10-26T17:03:30.512Z,101199.84
2022-10-26T17:06:02.640Z,101222.88
2022-10-26T17:08:29.706Z,101198.91
2022-10-26T17:11:02.482Z,101216.47
2022-10-26T17:13:28.836Z,101210.72
2022-10-26T17:15:55.278Z,101234.75
2022-10-26T17:18:21.589Z,101227.03
2022-10-26T17:20:51.754Z,101258.19
2022-10-26T17:23:18.379Z,101220.78
2022-10-26T17:25:44.776Z,101244.56
2022-10-26T17:28:12.539Z,101259.97
2022-10-26T17:30:39.799Z,101210.50
2022-10-26T17:33:06.699Z,101203.69
2022-10-26T17:35:33.552Z,101243.09
2022-10-26T17:38:00.035Z,101235.53
2022-10-26T17:40:26.472Z,101224.75
2022-10-26T17:42:53.018Z,101244.75
2022-10-26T17:45:19.330Z,101248.38
2022-10-26T17:47:45.875Z,101279.00
2022-10-26T17:50:12.290Z,101280.88
2022-10-26T17:52:38.669Z,101276.97
2022-10-26T17:55:05.408Z,101304.56
2022-10-26T17:57:32.342Z,101320.31
2022-10-26T17:59:58.640Z,101289.38
2022-10-26T18:02:25.286Z,101305.91
2022-10-26T18:04:51.753Z,101295.47
2022-10-26T18:07:18.170Z,101224.16
2022-10-26T18:09:44.492Z,101311.38
2022-10-26T18:12:11.045Z,101303.88
2022-10-26T18:14:37.408Z,101297.47
2022-10-26T18:17:03.918Z,101298.97
2022-10-26T18:19:30.312Z,101310.38
2022-10-26T18:21:56.665Z,101268.25
2022-10-26T18:24:22.964Z,101295.13
2022-10-26T18:26:49.481Z,101342.19
2022-10-26T18:29:15.947Z,101301.97
2022-10-26T18:31:44.200Z,101350.66
2022-10-26T18:34:10.876Z,101309.28
2022-10-26T18:39:03.792Z,101354.25
2022-10-26T18:41:30.195Z,101353.97
2022-10-26T18:43:58.991Z,101347.19
2022-10-26T18:46:28.065Z,101360.56
2022-10-26T18:48:55.637Z,101353.34
2022-10-26T18:51:26.167Z,101368.75
2022-10-26T18:53:52.519Z,101294.59
2022-10-26T18:56:21.302Z,101329.69
2022-10-26T18:58:49.817Z,101382.53
2022-10-26T19:01:19.036Z,101359.50
2022-10-26T19:03:52.321Z,101374.25
2022-10-26T19:06:29.699Z,101381.06
2022-10-26T19:09:02.656Z,101354.69
2022-10-26T19:11:31.513Z,101358.34
2022-10-26T19:13:58.630Z,101358.44
2022-10-26T19:16:44.695Z,101375.97
2022-10-26T19:19:13.873Z,101364.03
2022-10-26T19:21:40.363Z,101346.84
2022-10-26T19:24:37.767Z,101348.16
2022-10-26T19:27:04.701Z,101282.09
2022-10-26T19:29:40.935Z,101405.09
2022-10-26T19:32:07.342Z,101302.63
2022-10-26T19:34:33.721Z,101307.19
2022-10-26T19:37:00.142Z,101343.50
2022-10-26T19:39:27.663Z,101306.66
2022-10-26T19:41:54.091Z,101321.88
2022-10-26T19:44:25.502Z,101335.81
2022-10-26T19:46:52.110Z,101421.88
2022-10-26T19:49:18.652Z,101369.22
2022-10-26T19:51:44.993Z,101402.59
2022-10-26T19:54:11.296Z,101382.81
2022-10-26T19:56:37.951Z,101409.66
2022-10-26T19:59:05.227Z,101405.97
2022-10-26T20:01:32.200Z,101414.38
2022-10-26T20:03:58.725Z,101394.59
2022-10-26T20:06:25.086Z,101404.13
2022-10-26T20:08:51.552Z,101356.66
2022-10-26T20:11:18.561Z,101393.44
2022-10-26T20:13:46.420Z,101427.78
2022-10-26T20:16:14.182Z,101424.94
2022-10-26T20:18:44.136Z,101393.44
2022-10-26T20:21:15.998Z,101385.06
2022-10-26T20:23:43.105Z,101437.91
2022-10-26T20:26:11.742Z,101419.25
2022-10-26T20:28:44.463Z,101419.41
2022-10-26T20:31:10.831Z,101415.03
2022-10-26T20:33:37.183Z,101434.03
2022-10-26T20:36:03.752Z,101418.81
2022-10-26T20:38:30.606Z,101408.19
2022-10-26T20:40:59.070Z,101435.22
2022-10-26T20:43:27.046Z,101448.94
2022-10-26T20:45:54.472Z,101435.22
2022-10-26T20:48:21.992Z,101435.22
2022-10-26T20:51:04.793Z,101431.09
2022-10-26T20:53:37.854Z,101474.66
2022-10-26T20:56:19.502Z,101426.63
2022-10-26T20:58:57.580Z,101468.88
2022-10-26T21:01:34.151Z,101460.44
2022-10-26T21:04:02.338Z,101469.91
2022-10-26T21:06:29.465Z,101475.84
2022-10-26T21:08:56.781Z,101467.47
2022-10-26T21:11:24.800Z,101476.72
2022-10-26T21:13:53.317Z,101436.22
2022-10-26T21:16:19.806Z,101481.28
2022-10-26T21:18:46.129Z,101489.22
2022-10-26T21:21:12.550Z,101464.66
2022-10-26T21:23:40.378Z,101481.09
2022-10-26T21:26:08.084Z,101485.41
2022-10-26T21:28:41.301Z,101473.50
2022-10-26T21:31:10.254Z,101498.16
2022-10-26T21:33:36.871Z,101501.00
2022-10-26T21:36:05.573Z,101492.56
2022-10-26T21:38:32.965Z,101496.69
2022-10-26T21:41:04.509Z,101476.66
2022-10-26T21:43:31.919Z,101502.78
2022-10-26T21:45:59.319Z,101485.47
2022-10-26T21:48:26.794Z,101458.44
2022-10-26T21:50:53.425Z,101495.56
2022-10-26T21:53:19.862Z,101500.22
2022-10-26T21:55:46.743Z,101502.34
2022-10-26T21:58:13.421Z,101472.41
2022-10-26T22:00:39.787Z,101478.69
2022-10-26T22:03:06.200Z,101479.50
2022-10-26T22:05:33.498Z,101493.28
2022-10-26T22:07:59.853Z,101490.53
2022-10-26T22:10:26.257Z,101475.97
2022-10-26T22:12:52.596Z,101460.94
2022-10-26T22:15:18.973Z,101458.44
2022-10-26T22:17:45.276Z,101459.38
2022-10-26T22:20:14.585Z,101462.75
2022-10-26T22:22:40.902Z,101481.88
2022-10-26T22:25:07.606Z,101485.63
2022-10-26T22:27:33.989Z,101451.31
2022-10-26T22:30:00.408Z,101375.28
2022-10-26T22:32:26.710Z,101395.25
2022-10-26T22:35:00.262Z,101477.63
2022-10-26T22:37:37.005Z,101467.06
2022-10-26T22:40:03.891Z,101469.47
2022-10-26T22:42:30.187Z,101471.84
2022-10-26T22:44:56.590Z,101480.19
2022-10-26T22:47:23.057Z,101453.84
2022-10-26T22:49:49.431Z,101453.75
2022-10-26T22:52:15.713Z,101461.50
2022-10-26T22:54:42.113Z,101496.97
2022-10-26T22:57:08.394Z,101454.22
2022-10-26T22:59:34.699Z,101440.97
2022-10-26T23:02:01.082Z,101468.44
2022-10-26T23:04:27.466Z,101466.28
2022-10-26T23:06:54.091Z,101476.41
2022-10-26T23:09:20.459Z,101483.59
2022-10-26T23:11:46.753Z,101476.78
2022-10-26T23:14:13.221Z,101495.91
2022-10-26T23:16:39.531Z,101461.53
2022-10-26T23:19:05.958Z,101455.78
2022-10-26T23:21:32.304Z,101461.78
2022-10-26T23:23:58.786Z,101458.53
2022-10-26T23:26:25.284Z,101458.44
2022-10-26T23:28:51.711Z,101481.09
2022-10-26T23:31:23.525Z,101498.59
2022-10-26T23:33:51.217Z,101489.19
2022-10-26T23:36:18.445Z,101500.47
2022-10-26T23:38:44.949Z,101476.59
2022-10-26T23:41:12.971Z,101509.69
2022-10-26T23:43:40.102Z,101498.41
2022-10-26T23:46:07.068Z,101505.56
2022-10-26T23:48:33.654Z,101470.22
2022-10-26T23:50:59.960Z,101478.09
2022-10-26T23:53:26.538Z,101486.84
2022-10-26T23:55:53.212Z,101505.00
2022-10-26T23:58:19.997Z,101512.03
